createdAt,value
2023-05-23T00:08:21.296Z,39.23
2023-05-23T00:50:39.034Z,39.69
2023-05-23T00:56:27.674Z,39.23
2023-05-23T01:03:28.923Z,38.92
2023-05-23T01:06:01.384Z,38.82
2023-05-23T01:08:32.886Z,38.75
2023-05-23T01:11:10.655Z,38.61
2023-05-23T01:14:21.337Z,38.35
2023-05-23T01:21:43.127Z,38.19
2023-05-23T01:24:40.036Z,38.55
2023-05-23T01:31:14.738Z,38.50
2023-05-23T01:34:27.265Z,38.62
2023-05-23T01:37:46.576Z,38.71
2023-05-23T01:40:15.833Z,38.77
2023-05-23T01:42:44.104Z,38.79
2023-05-23T01:45:13.532Z,38.75
2023-05-23T01:47:43.803Z,39.11
2023-05-23T01:50:13.528Z,38.87
2023-05-23T01:52:41.525Z,38.84
2023-05-23T01:55:11.977Z,38.86
2023-05-23T01:57:40.552Z,38.72
2023-05-23T02:00:12.302Z,38.88
2023-05-23T02:02:44.897Z,39.13
2023-05-23T02:05:12.942Z,39.00
2023-05-23T02:07:41.000Z,38.54
2023-05-23T02:10:10.531Z,39.03
2023-05-23T02:12:39.360Z,39.06
2023-05-23T02:15:08.879Z,38.61
2023-05-23T02:17:38.742Z,39.17
2023-05-23T02:20:10.317Z,39.06
2023-05-23T02:22:38.187Z,39.37
2023-05-23T02:25:09.728Z,39.21
2023-05-23T02:27:37.897Z,38.98
2023-05-23T02:30:07.654Z,38.76
2023-05-23T02:32:37.702Z,39.37
2023-05-23T02:35:06.625Z,39.17
2023-05-23T02:37:35.886Z,39.20
2023-05-23T02:40:07.720Z,39.44
2023-05-23T02:42:36.844Z,39.08
2023-05-23T02:45:05.174Z,39.23
2023-05-23T02:47:33.068Z,39.10
2023-05-23T02:50:01.446Z,39.04
2023-05-23T02:52:29.757Z,39.18
2023-05-23T02:54:58.938Z,38.98
2023-05-23T02:57:27.378Z,39.19
2023-05-23T02:59:55.741Z,39.46
2023-05-23T03:02:23.813Z,39.52
2023-05-23T03:04:51.624Z,39.47
2023-05-23T03:07:27.510Z,39.29
2023-05-23T03:09:58.689Z,39.50
2023-05-23T03:12:26.630Z,39.20
2023-05-23T03:14:54.624Z,39.52
2023-05-23T03:17:23.119Z,39.15
2023-05-23T03:19:51.311Z,39.51
2023-05-23T03:22:20.261Z,39.03
2023-05-23T03:24:48.262Z,39.41
2023-05-23T03:27:17.611Z,39.27
2023-05-23T03:29:45.533Z,39.38
2023-05-23T03:32:13.838Z,39.26
2023-05-23T03:34:42.209Z,39.21
2023-05-23T03:37:12.715Z,39.33
2023-05-23T03:39:40.544Z,39.70
2023-05-23T03:42:08.944Z,39.67
2023-05-23T03:44:38.616Z,39.68
2023-05-23T03:47:08.277Z,39.48
2023-05-23T03:49:39.143Z,39.45
2023-05-23T03:52:07.515Z,39.78
2023-05-23T03:54:35.822Z,39.35
2023-05-23T03:57:03.718Z,39.49
2023-05-23T03:59:31.798Z,39.45
2023-05-23T04:02:01.502Z,39.69
2023-05-23T04:04:31.149Z,39.46
2023-05-23T04:07:01.571Z,39.68
2023-05-23T04:09:29.928Z,39.80
2023-05-23T04:11:58.657Z,39.32
2023-05-23T04:14:27.638Z,39.58
2023-05-23T04:16:56.527Z,39.30
2023-05-23T04:19:26.031Z,39.58
2023-05-23T04:21:54.084Z,39.63
2023-05-23T04:24:22.011Z,39.92
2023-05-23T04:26:50.060Z,39.65
2023-05-23T04:29:17.997Z,40.11
2023-05-23T04:31:46.822Z,40.14
2023-05-23T04:34:17.198Z,39.83
2023-05-23T04:36:46.919Z,39.88
2023-05-23T04:39:16.028Z,39.92
2023-05-23T04:41:56.899Z,40.30
2023-05-23T04:44:51.091Z,40.44
2023-05-23T04:47:28.034Z,40.11
2023-05-23T04:50:05.508Z,40.10
2023-05-23T04:52:35.121Z,40.25
2023-05-23T04:55:03.669Z,40.49
2023-05-23T04:57:31.762Z,40.25
2023-05-23T05:00:01.139Z,40.56
2023-05-23T05:02:35.164Z,40.40
2023-05-23T05:05:04.116Z,40.41
2023-05-23T05:07:32.032Z,40.57
2023-05-23T05:10:03.202Z,40.43
2023-05-23T05:12:33.321Z,40.58
2023-05-23T05:15:01.591Z,40.89
2023-05-23T05:17:30.253Z,40.81
2023-05-23T05:20:08.433Z,40.57
2023-05-23T05:22:40.330Z,40.58
2023-05-23T05:25:12.324Z,40.69
2023-05-23T05:27:41.149Z,40.72
2023-05-23T05:30:12.419Z,40.99
2023-05-23T05:32:51.641Z,40.75
2023-05-23T05:35:20.037Z,41.03
2023-05-23T05:37:48.206Z,40.91
2023-05-23T05:40:17.539Z,40.88
2023-05-23T05:42:45.605Z,40.55
2023-05-23T05:45:13.730Z,40.71
2023-05-23T05:47:43.554Z,40.82
2023-05-23T05:50:12.361Z,40.70
2023-05-23T05:52:40.497Z,41.23
2023-05-23T05:55:11.325Z,41.42
2023-05-23T05:57:42.774Z,41.10
2023-05-23T06:00:15.181Z,41.40
2023-05-23T06:02:52.601Z,41.09
2023-05-23T06:05:33.816Z,41.18
2023-05-23T06:08:02.071Z,41.04
2023-05-23T06:10:30.164Z,40.94
2023-05-23T06:12:59.488Z,41.12
2023-05-23T06:15:27.535Z,40.98
2023-05-23T06:17:55.461Z,41.34
2023-05-23T06:20:24.947Z,41.07
2023-05-23T06:22:54.184Z,41.29
2023-05-23T06:25:22.008Z,41.04
2023-05-23T06:27:50.352Z,40.65
2023-05-23T06:30:19.649Z,40.70
2023-05-23T06:32:47.789Z,40.71
2023-05-23T06:35:16.134Z,40.66
2023-05-23T06:37:45.833Z,40.72
2023-05-23T06:40:14.251Z,40.81
2023-05-23T06:42:42.379Z,40.76
2023-05-23T06:45:21.067Z,40.97
2023-05-23T06:47:49.410Z,40.99
2023-05-23T06:50:20.108Z,40.95
2023-05-23T06:52:49.976Z,40.50
2023-05-23T06:55:19.430Z,40.36
2023-05-23T06:57:52.311Z,40.69
2023-05-23T07:00:23.802Z,40.73
2023-05-23T07:03:04.234Z,40.48
2023-05-23T07:05:33.340Z,40.85
2023-05-23T07:08:01.388Z,40.67
2023-05-23T07:10:29.367Z,40.85
2023-05-23T07:13:05.078Z,40.55
2023-05-23T07:15:34.595Z,40.70
2023-05-23T07:18:12.502Z,40.96
2023-05-23T07:20:40.590Z,40.59
2023-05-23T07:23:15.652Z,40.38
2023-05-23T07:25:53.753Z,40.77
2023-05-23T07:28:32.500Z,40.51
2023-05-23T07:31:02.282Z,40.76
2023-05-23T07:33:33.567Z,41.04
2023-05-23T07:36:04.608Z,40.80
2023-05-23T07:38:32.465Z,40.53
2023-05-23T07:41:10.745Z,40.31
2023-05-23T07:43:41.328Z,40.41
2023-05-23T07:46:26.733Z,40.21
2023-05-23T07:49:04.620Z,40.79
2023-05-23T07:51:36.698Z,40.63
2023-05-23T07:54:14.522Z,40.69
2023-05-23T07:57:34.706Z,40.48
2023-05-23T08:03:25.926Z,40.24
2023-05-23T08:06:04.514Z,40.26
2023-05-23T08:08:33.099Z,40.49
2023-05-23T08:11:02.234Z,40.48
2023-05-23T08:13:39.173Z,40.36
2023-05-23T08:16:33.514Z,40.41
2023-05-23T08:19:03.197Z,39.94
2023-05-23T08:21:33.450Z,39.83
2023-05-23T08:24:03.870Z,40.29
2023-05-23T08:26:35.003Z,39.92
2023-05-23T08:29:05.646Z,40.26
2023-05-23T08:31:36.609Z,39.95
2023-05-23T08:34:08.288Z,40.14
2023-05-23T08:36:40.127Z,39.85
2023-05-23T08:39:13.825Z,39.82
2023-05-23T08:41:51.215Z,39.72
2023-05-23T08:44:19.391Z,40.01
2023-05-23T08:46:54.319Z,39.88
2023-05-23T08:49:46.281Z,39.99
2023-05-23T08:55:55.802Z,39.73
2023-05-23T08:58:30.086Z,39.94
2023-05-23T09:01:02.813Z,40.05
2023-05-23T09:03:34.220Z,40.18
2023-05-23T09:06:18.398Z,40.33
2023-05-23T09:08:46.800Z,40.29
2023-05-23T09:11:16.410Z,40.43
2023-05-23T09:13:46.299Z,40.15
2023-05-23T09:16:18.892Z,40.28
2023-05-23T09:18:57.898Z,40.36
2023-05-23T09:21:28.950Z,39.97
2023-05-23T09:24:07.246Z,40.15
2023-05-23T09:26:35.592Z,40.16
2023-05-23T09:29:07.416Z,40.25
2023-05-23T09:31:36.564Z,40.00
2023-05-23T09:34:05.292Z,39.92
2023-05-23T09:36:36.577Z,40.03
2023-05-23T09:39:06.473Z,39.96
2023-05-23T09:41:35.316Z,39.85
2023-05-23T09:44:07.462Z,39.56
2023-05-23T09:46:38.050Z,39.44
2023-05-23T09:49:19.813Z,39.08
2023-05-23T09:52:00.808Z,39.10
2023-05-23T09:54:29.051Z,39.37
2023-05-23T09:57:01.317Z,39.00
2023-05-23T09:59:32.799Z,38.88
2023-05-23T10:02:03.701Z,39.28
2023-05-23T10:04:37.177Z,38.85
2023-05-23T10:07:15.916Z,39.05
2023-05-23T10:09:51.690Z,39.10
2023-05-23T10:13:03.130Z,38.66
2023-05-23T10:15:36.838Z,39.32
2023-05-23T10:18:09.311Z,38.94
2023-05-23T10:20:41.226Z,39.01
2023-05-23T10:23:11.856Z,39.06
2023-05-23T10:25:42.139Z,38.89
2023-05-23T10:28:12.362Z,39.35
2023-05-23T10:30:41.846Z,38.97
2023-05-23T10:33:12.064Z,39.16
2023-05-23T10:35:49.118Z,38.24
2023-05-23T10:38:38.025Z,38.82
2023-05-23T10:41:13.681Z,38.58
2023-05-23T10:43:48.415Z,38.81
2023-05-23T10:46:16.913Z,38.72
2023-05-23T10:48:45.903Z,38.68
2023-05-23T10:51:17.458Z,38.24
2023-05-23T10:53:50.293Z,38.32
2023-05-23T10:56:23.965Z,38.32
2023-05-23T10:58:55.079Z,38.38
2023-05-23T11:01:23.917Z,38.31
2023-05-23T11:03:55.267Z,38.28
2023-05-23T11:06:33.274Z,37.78
2023-05-23T11:09:10.419Z,37.96
2023-05-23T11:12:05.413Z,37.98
2023-05-23T11:14:55.781Z,37.90
2023-05-23T11:17:34.721Z,37.38
2023-05-23T11:20:07.311Z,37.68
2023-05-23T11:22:35.713Z,38.39
2023-05-23T11:25:10.696Z,37.28
2023-05-23T11:27:42.096Z,37.78
2023-05-23T11:30:13.645Z,37.30
2023-05-23T11:32:43.186Z,37.47
2023-05-23T11:35:12.248Z,36.82
2023-05-23T11:37:40.874Z,37.09
2023-05-23T11:40:31.134Z,36.69
2023-05-23T11:43:00.074Z,36.65
2023-05-23T11:45:29.560Z,36.77
2023-05-23T11:47:57.888Z,36.29
2023-05-23T11:50:26.444Z,36.46
2023-05-23T11:52:56.511Z,36.03
2023-05-23T11:55:25.087Z,36.22
2023-05-23T11:57:57.771Z,35.36
2023-05-23T12:00:25.788Z,36.63
2023-05-23T12:02:54.251Z,36.10
2023-05-23T12:05:22.545Z,36.06
2023-05-23T12:07:51.228Z,36.03
2023-05-23T12:10:22.508Z,36.03
2023-05-23T12:12:54.629Z,35.54
2023-05-23T12:15:29.268Z,35.17
2023-05-23T12:17:58.289Z,35.97
2023-05-23T12:20:28.069Z,35.87
2023-05-23T12:22:58.925Z,35.65
2023-05-23T12:25:28.102Z,35.78
2023-05-23T12:27:58.284Z,35.38
2023-05-23T12:30:26.509Z,35.59
2023-05-23T12:32:54.583Z,35.33
2023-05-23T12:35:22.774Z,35.35
2023-05-23T12:37:50.987Z,35.09
2023-05-23T12:40:21.574Z,35.40
2023-05-23T12:42:55.504Z,34.69
2023-05-23T12:45:38.814Z,34.57
2023-05-23T12:48:08.712Z,35.35
2023-05-23T12:50:37.001Z,35.22
2023-05-23T12:53:05.133Z,34.89
2023-05-23T12:55:34.406Z,34.99
2023-05-23T12:58:02.587Z,34.50
2023-05-23T13:00:32.136Z,34.30
2023-05-23T13:03:00.309Z,34.11
2023-05-23T13:05:28.764Z,33.99
2023-05-23T13:07:59.532Z,33.74
2023-05-23T13:10:29.507Z,33.96
2023-05-23T13:12:59.201Z,34.33
2023-05-23T13:15:27.378Z,33.81
2023-05-23T13:18:00.208Z,33.00
2023-05-23T13:20:30.204Z,33.63
2023-05-23T13:22:58.703Z,33.00
2023-05-23T13:25:27.577Z,33.15
2023-05-23T13:27:57.857Z,33.08
2023-05-23T13:30:26.877Z,32.82
2023-05-23T13:32:58.098Z,33.35
2023-05-23T13:35:27.860Z,32.57
2023-05-23T13:37:56.219Z,32.65
2023-05-23T13:40:24.620Z,32.15
2023-05-23T13:42:53.691Z,31.85
2023-05-23T13:45:23.087Z,31.67
2023-05-23T13:47:51.242Z,31.99
2023-05-23T13:50:19.411Z,31.89
2023-05-23T13:52:49.671Z,31.09
2023-05-23T13:55:18.781Z,31.23
2023-05-23T13:57:47.198Z,31.66
2023-05-23T14:00:16.158Z,31.02
2023-05-23T14:02:44.294Z,31.34
2023-05-23T14:05:12.466Z,31.25
2023-05-23T14:07:41.259Z,30.77
2023-05-23T14:10:12.054Z,30.68
2023-05-23T14:12:39.972Z,30.96
2023-05-23T14:15:09.097Z,30.96
2023-05-23T14:17:37.151Z,31.09
2023-05-23T14:20:05.735Z,30.93
2023-05-23T14:22:33.692Z,31.12
2023-05-23T14:25:01.753Z,31.22
2023-05-23T14:27:31.509Z,30.57
2023-05-23T14:29:59.396Z,30.77
2023-05-23T14:32:27.723Z,30.91
2023-05-23T14:34:56.597Z,30.69
2023-05-23T14:37:29.035Z,30.67
2023-05-23T14:39:57.686Z,30.87
2023-05-23T14:42:26.602Z,30.59
2023-05-23T14:44:56.759Z,29.81
2023-05-23T14:47:34.201Z,30.46
2023-05-23T14:50:04.282Z,30.79
2023-05-23T14:52:32.984Z,30.60
2023-05-23T14:55:02.348Z,30.78
2023-05-23T14:57:32.625Z,30.42
2023-05-23T15:00:05.905Z,30.13
2023-05-23T15:02:35.236Z,30.18
2023-05-23T15:05:04.943Z,30.30
2023-05-23T15:07:33.147Z,30.47
2023-05-23T15:10:02.439Z,30.04
2023-05-23T15:12:30.701Z,30.29
2023-05-23T15:15:04.019Z,30.35
2023-05-23T15:17:34.274Z,29.84
2023-05-23T15:20:05.984Z,29.63
2023-05-23T15:22:38.786Z,29.95
2023-05-23T15:25:09.243Z,29.50
2023-05-23T15:27:37.326Z,29.54
2023-05-23T15:30:06.292Z,29.31
2023-05-23T15:32:35.862Z,29.75
2023-05-23T15:35:05.325Z,29.75
2023-05-23T15:37:36.464Z,29.60
2023-05-23T15:40:05.552Z,29.34
2023-05-23T15:42:33.799Z,29.20
2023-05-23T15:45:01.919Z,29.23
2023-05-23T15:47:30.307Z,29.13
2023-05-23T15:50:00.217Z,29.17
2023-05-23T15:52:28.336Z,28.92
2023-05-23T15:54:57.156Z,28.85
2023-05-23T15:57:27.976Z,29.29
2023-05-23T15:59:56.077Z,29.13
2023-05-23T16:02:24.183Z,28.74
2023-05-23T16:04:52.305Z,29.30
2023-05-23T16:07:21.921Z,29.09
2023-05-23T16:09:50.101Z,29.18
2023-05-23T16:12:21.586Z,28.64
2023-05-23T16:14:50.211Z,28.55
2023-05-23T16:17:18.317Z,28.72
2023-05-23T16:19:46.611Z,28.73
2023-05-23T16:22:14.904Z,28.55
2023-05-23T16:24:44.666Z,28.44
2023-05-23T16:27:38.739Z,28.48
2023-05-23T16:30:11.786Z,28.49
2023-05-23T16:32:44.485Z,28.39
2023-05-23T16:35:14.745Z,28.36
2023-05-23T16:37:44.738Z,28.35
2023-05-23T16:40:18.845Z,27.97
2023-05-23T16:46:05.563Z,28.81
2023-05-23T16:48:36.399Z,28.70
2023-05-23T16:51:05.234Z,28.34
2023-05-23T16:53:33.224Z,28.04
2023-05-23T16:56:04.357Z,28.25
2023-05-23T16:58:36.010Z,28.72
2023-05-23T17:01:04.168Z,28.42
2023-05-23T17:03:32.335Z,28.56
2023-05-23T17:06:00.938Z,28.03
2023-05-23T17:08:28.909Z,28.27
2023-05-23T17:10:56.951Z,28.24
2023-05-23T17:13:26.505Z,28.29
2023-05-23T17:15:54.740Z,27.82
2023-05-23T17:18:23.395Z,27.99
2023-05-23T17:20:51.545Z,28.02
2023-05-23T17:23:19.805Z,27.79
2023-05-23T17:25:48.211Z,27.99
2023-05-23T17:28:16.522Z,28.17
2023-05-23T17:30:46.177Z,27.69
2023-05-23T17:33:14.262Z,28.38
2023-05-23T17:35:42.545Z,28.23
2023-05-23T17:38:10.677Z,28.31
2023-05-23T17:40:38.871Z,27.88
2023-05-23T17:43:07.359Z,28.30
2023-05-23T17:45:36.133Z,27.94
2023-05-23T17:48:07.812Z,28.24
2023-05-23T17:50:35.965Z,27.96
2023-05-23T17:53:04.420Z,28.02
2023-05-23T17:55:32.559Z,28.49
2023-05-23T17:58:01.208Z,28.47
2023-05-23T18:00:29.173Z,28.93
2023-05-23T18:02:57.091Z,29.02
2023-05-23T18:05:26.721Z,29.06
2023-05-23T18:07:54.533Z,29.20
2023-05-23T18:10:22.501Z,29.01
2023-05-23T18:12:51.706Z,29.43
2023-05-23T18:15:20.558Z,29.24
2023-05-23T18:17:51.740Z,28.87
2023-05-23T18:20:27.660Z,28.80
2023-05-23T18:23:01.723Z,28.83
2023-05-23T18:25:30.188Z,28.72
2023-05-23T18:27:59.986Z,28.72
2023-05-23T18:30:28.716Z,28.03
2023-05-23T18:32:57.102Z,28.35
2023-05-23T18:35:25.834Z,28.30
2023-05-23T18:37:54.427Z,28.21
2023-05-23T18:40:26.484Z,27.63
2023-05-23T18:42:54.689Z,28.14
2023-05-23T18:45:22.817Z,27.80
2023-05-23T18:47:51.198Z,28.06
2023-05-23T18:50:20.440Z,28.39
2023-05-23T18:52:49.056Z,28.44
2023-05-23T18:55:17.860Z,27.69
2023-05-23T18:57:47.501Z,28.06
2023-05-23T19:00:20.499Z,28.08
2023-05-23T19:02:49.482Z,27.79
2023-05-23T19:05:17.762Z,27.89
2023-05-23T19:07:45.856Z,27.83
2023-05-23T19:10:13.732Z,27.93
2023-05-23T19:12:45.053Z,27.96
2023-05-23T19:15:15.064Z,28.02
2023-05-23T19:17:43.077Z,27.81
2023-05-23T19:20:12.046Z,28.17
2023-05-23T19:22:50.974Z,27.90
2023-05-23T19:25:20.541Z,27.97
2023-05-23T19:27:48.880Z,28.04
2023-05-23T19:30:18.826Z,28.29
2023-05-23T19:32:46.962Z,27.99
2023-05-23T19:35:17.503Z,28.55
2023-05-23T19:37:45.859Z,28.20
2023-05-23T19:40:14.591Z,28.08
2023-05-23T19:42:43.001Z,27.88
2023-05-23T19:45:12.034Z,28.19
2023-05-23T19:47:41.461Z,28.28
2023-05-23T19:50:11.960Z,28.08
2023-05-23T19:52:39.866Z,28.27
2023-05-23T19:55:08.427Z,27.97
2023-05-23T19:57:36.432Z,28.60
2023-05-23T20:00:05.762Z,28.16
2023-05-23T20:02:34.284Z,27.99
2023-05-23T20:05:03.581Z,28.32
2023-05-23T20:07:31.571Z,28.01
2023-05-23T20:09:59.415Z,28.25
2023-05-23T20:12:27.328Z,28.11
2023-05-23T20:14:55.733Z,28.15
2023-05-23T20:17:24.072Z,28.18
2023-05-23T20:19:51.961Z,28.50
2023-05-23T20:22:21.315Z,28.14
2023-05-23T20:24:49.350Z,28.04
2023-05-23T20:27:19.870Z,28.50
2023-05-23T20:29:48.043Z,28.66
2023-05-23T20:32:16.672Z,28.54
2023-05-23T20:34:44.604Z,28.43
2023-05-23T20:37:15.463Z,28.83
2023-05-23T20:39:45.107Z,28.54
2023-05-23T20:42:15.230Z,28.34
2023-05-23T20:44:44.676Z,28.87
2023-05-23T20:47:13.430Z,28.31
2023-05-23T20:49:42.367Z,28.86
2023-05-23T20:52:10.331Z,28.87
2023-05-23T20:54:38.226Z,28.88
2023-05-23T20:57:07.809Z,28.31
2023-05-23T20:59:35.951Z,28.67
2023-05-23T21:02:04.880Z,28.79
2023-05-23T21:04:35.653Z,28.26
2023-05-23T21:07:03.923Z,28.43
2023-05-23T21:09:31.787Z,28.60
2023-05-23T21:12:10.857Z,28.64
2023-05-23T21:14:38.769Z,28.67
2023-05-23T21:17:06.640Z,28.93
2023-05-23T21:19:34.647Z,28.87
2023-05-23T21:22:02.661Z,28.39
2023-05-23T21:24:30.762Z,28.44
2023-05-23T21:26:58.597Z,28.81
2023-05-23T21:29:27.815Z,28.66
2023-05-23T21:31:55.861Z,28.84
2023-05-23T21:34:26.127Z,28.79
2023-05-23T21:36:54.136Z,28.56
2023-05-23T21:39:21.980Z,28.82
2023-05-23T21:41:50.213Z,28.89
2023-05-23T21:44:18.886Z,28.49
2023-05-23T21:46:48.534Z,28.73
2023-05-23T21:49:16.846Z,28.56
2023-05-23T21:51:45.142Z,29.16
2023-05-23T21:54:13.273Z,28.87
2023-05-23T21:56:41.515Z,28.72
2023-05-23T21:59:09.496Z,28.79
2023-05-23T22:01:37.654Z,29.22
2023-05-23T22:04:07.261Z,28.54
2023-05-23T22:06:35.253Z,28.67
2023-05-23T22:09:03.331Z,29.06
2023-05-23T22:11:34.208Z,28.77
2023-05-23T22:14:02.782Z,28.70
2023-05-23T22:16:33.095Z,28.78
2023-05-23T22:19:02.138Z,29.16
2023-05-23T22:21:33.036Z,29.21
2023-05-23T22:24:01.043Z,29.38
2023-05-23T22:26:29.158Z,29.33
2023-05-23T22:28:57.144Z,29.52
2023-05-23T22:31:25.301Z,29.45
2023-05-23T22:33:53.368Z,29.55
2023-05-23T22:36:22.344Z,29.14
2023-05-23T22:38:51.693Z,29.50
2023-05-23T22:41:19.696Z,29.15
2023-05-23T22:43:48.131Z,29.30
2023-05-23T22:46:15.987Z,29.64
2023-05-23T22:48:45.114Z,29.74
2023-05-23T22:51:14.600Z,29.72
2023-05-23T22:53:43.266Z,29.07
2023-05-23T22:56:12.638Z,29.69
2023-05-23T22:58:40.682Z,29.12
2023-05-23T23:01:08.735Z,29.27
2023-05-23T23:03:36.754Z,29.72
2023-05-23T23:06:06.218Z,29.74
2023-05-23T23:08:34.393Z,29.26
2023-05-23T23:11:02.369Z,29.71
2023-05-23T23:13:31.884Z,29.90
2023-05-23T23:15:59.697Z,29.48
2023-05-23T23:18:27.853Z,29.53
2023-05-23T23:20:55.727Z,29.37
2023-05-23T23:23:23.585Z,29.58
2023-05-23T23:25:52.120Z,29.66
2023-05-23T23:28:20.850Z,29.85
2023-05-23T23:30:50.123Z,29.85
2023-05-23T23:33:18.058Z,29.83
2023-05-23T23:35:48.509Z,29.64
2023-05-23T23:38:17.484Z,29.52
2023-05-23T23:40:45.683Z,30.05
2023-05-23T23:43:13.928Z,29.59
2023-05-23T23:45:41.803Z,30.04
2023-05-23T23:48:11.327Z,30.21
2023-05-23T23:50:39.230Z,29.70
2023-05-23T23:53:07.744Z,29.67
2023-05-23T23:55:35.627Z,29.99
2023-05-23T23:58:03.510Z,29.77
